sensor_id;sensor_type;location;lat;lon;timestamp;temperature;humidity
7784;DHT22;19359;51.402;6.778;2022-12-11T00:02:08;0.60;99.90
7784;DHT22;19359;51.402;6.778;2022-12-11T00:04:37;0.50;99.90
7784;DHT22;19359;51.402;6.778;2022-12-11T00:07:04;0.60;99.90
7784;DHT22;19359;51.402;6.778;2022-12-11T00:09:31;0.60;99.90
7784;DHT22;19359;51.402;6.778;2022-12-11T00:14:27;0.60;99.90
7784;DHT22;19359;51.402;6.778;2022-12-11T00:16:54;0.60;99.90
7784;DHT22;19359;51.402;6.778;2022-12-11T00:19:20;0.60;99.90
7784;DHT22;19359;51.402;6.778;2022-12-11T00:21:48;0.50;99.90
7784;DHT22;19359;51.402;6.778;2022-12-11T00:24:15;0.50;99.90
7784;DHT22;19359;51.402;6.778;2022-12-11T00:26:42;0.50;99.90
7784;DHT22;19359;51.402;6.778;2022-12-11T00:29:10;0.50;1.00
7784;DHT22;19359;51.402;6.778;2022-12-11T00:31:39;1.10;1.00
7784;DHT22;19359;51.402;6.778;2022-12-11T00:34:06;0.50;1.00
7784;DHT22;19359;51.402;6.778;2022-12-11T00:36:33;0.50;1.00
7784;DHT22;19359;51.402;6.778;2022-12-11T00:39:02;0.50;1.00
7784;DHT22;19359;51.402;6.778;2022-12-11T00:41:29;0.50;1.00
7784;DHT22;19359;51.402;6.778;2022-12-11T00:43:55;0.40;1.00
7784;DHT22;19359;51.402;6.778;2022-12-11T00:46:22;0.50;1.00
7784;DHT22;19359;51.402;6.778;2022-12-11T00:48:49;0.50;1.00
7784;DHT22;19359;51.402;6.778;2022-12-11T00:51:16;0.50;1.00
7784;DHT22;19359;51.402;6.778;2022-12-11T00:53:43;0.60;1.00
7784;DHT22;19359;51.402;6.778;2022-12-11T00:56:14;0.50;1.00
7784;DHT22;19359;51.402;6.778;2022-12-11T00:58:41;0.50;1.00
7784;DHT22;19359;51.402;6.778;2022-12-11T01:01:09;0.60;1.00
7784;DHT22;19359;51.402;6.778;2022-12-11T01:03:36;0.60;1.00
7784;DHT22;19359;51.402;6.778;2022-12-11T01:06:03;0.60;1.00
7784;DHT22;19359;51.402;6.778;2022-12-11T01:08:30;0.60;99.90
7784;DHT22;19359;51.402;6.778;2022-12-11T01:11:01;0.60;99.90
7784;DHT22;19359;51.402;6.778;2022-12-11T01:13:29;0.60;99.90
7784;DHT22;19359;51.402;6.778;2022-12-11T01:18:24;0.60;99.90
7784;DHT22;19359;51.402;6.778;2022-12-11T01:23:18;0.50;99.90
7784;DHT22;19359;51.402;6.778;2022-12-11T01:25:45;0.40;1.00
7784;DHT22;19359;51.402;6.778;2022-12-11T01:28:11;0.40;99.90
7784;DHT22;19359;51.402;6.778;2022-12-11T01:30:41;0.50;1.00
7784;DHT22;19359;51.402;6.778;2022-12-11T01:33:09;0.50;99.90
7784;DHT22;19359;51.402;6.778;2022-12-11T01:35:37;0.50;1.00
7784;DHT22;19359;51.402;6.778;2022-12-11T01:38:04;0.50;1.00
7784;DHT22;19359;51.402;6.778;2022-12-11T01:40:30;0.50;1.00
7784;DHT22;19359;51.402;6.778;2022-12-11T01:42:57;0.50;99.90
7784;DHT22;19359;51.402;6.778;2022-12-11T01:45:28;0.50;1.00
7784;DHT22;19359;51.402;6.778;2022-12-11T01:48:00;0.50;1.00
7784;DHT22;19359;51.402;6.778;2022-12-11T01:50:28;0.60;1.00
7784;DHT22;19359;51.402;6.778;2022-12-11T01:52:56;0.60;1.00
7784;DHT22;19359;51.402;6.778;2022-12-11T01:55:23;0.60;1.00
7784;DHT22;19359;51.402;6.778;2022-12-11T01:57:51;0.60;1.00
7784;DHT22;19359;51.402;6.778;2022-12-11T02:00:18;0.70;99.90
7784;DHT22;19359;51.402;6.778;2022-12-11T02:02:45;0.60;1.00
7784;DHT22;19359;51.402;6.778;2022-12-11T02:05:13;0.60;1.00
7784;DHT22;19359;51.402;6.778;2022-12-11T02:07:43;0.60;1.00
7784;DHT22;19359;51.402;6.778;2022-12-11T02:10:10;0.70;1.00
7784;DHT22;19359;51.402;6.778;2022-12-11T02:12:42;0.60;1.00
7784;DHT22;19359;51.402;6.778;2022-12-11T02:15:16;0.60;99.90
7784;DHT22;19359;51.402;6.778;2022-12-11T02:17:48;0.60;1.00
7784;DHT22;19359;51.402;6.778;2022-12-11T02:20:22;0.60;1.00
7784;DHT22;19359;51.402;6.778;2022-12-11T02:23:03;0.70;1.00
7784;DHT22;19359;51.402;6.778;2022-12-11T02:25:36;0.70;1.00
7784;DHT22;19359;51.402;6.778;2022-12-11T02:28:16;0.70;1.00
7784;DHT22;19359;51.402;6.778;2022-12-11T02:30:47;0.60;64.10
7784;DHT22;19359;51.402;6.778;2022-12-11T02:33:17;0.70;60.40
7784;DHT22;19359;51.402;6.778;2022-12-11T02:35:47;0.70;1.00
7784;DHT22;19359;51.402;6.778;2022-12-11T02:38:17;0.60;1.00
7784;DHT22;19359;51.402;6.778;2022-12-11T02:40:48;0.60;1.00
7784;DHT22;19359;51.402;6.778;2022-12-11T02:43:21;0.60;1.00
7784;DHT22;19359;51.402;6.778;2022-12-11T02:45:49;0.70;1.00
7784;DHT22;19359;51.402;6.778;2022-12-11T02:48:17;0.70;1.00
7784;DHT22;19359;51.402;6.778;2022-12-11T02:50:46;0.70;1.00
7784;DHT22;19359;51.402;6.778;2022-12-11T02:53:17;0.70;86.90
7784;DHT22;19359;51.402;6.778;2022-12-11T02:55:49;0.70;1.00
7784;DHT22;19359;51.402;6.778;2022-12-11T02:58:21;0.70;1.00
7784;DHT22;19359;51.402;6.778;2022-12-11T03:00:49;0.70;1.00
7784;DHT22;19359;51.402;6.778;2022-12-11T03:03:16;0.70;1.00
7784;DHT22;19359;51.402;6.778;2022-12-11T03:05:43;0.70;1.00
7784;DHT22;19359;51.402;6.778;2022-12-11T03:08:11;0.70;1.00
7784;DHT22;19359;51.402;6.778;2022-12-11T03:10:43;0.70;1.00
7784;DHT22;19359;51.402;6.778;2022-12-11T03:13:12;0.70;1.00
7784;DHT22;19359;51.402;6.778;2022-12-11T03:15:46;0.80;1.00
7784;DHT22;19359;51.402;6.778;2022-12-11T03:18:19;0.70;1.00
7784;DHT22;19359;51.402;6.778;2022-12-11T03:20:57;0.70;1.00
7784;DHT22;19359;51.402;6.778;2022-12-11T03:23:30;0.80;1.00
7784;DHT22;19359;51.402;6.778;2022-12-11T03:26:02;0.80;1.00
7784;DHT22;19359;51.402;6.778;2022-12-11T03:28:36;0.70;1.00
7784;DHT22;19359;51.402;6.778;2022-12-11T03:31:08;0.70;1.00
7784;DHT22;19359;51.402;6.778;2022-12-11T03:33:38;0.70;1.00
7784;DHT22;19359;51.402;6.778;2022-12-11T03:36:08;0.70;1.00
7784;DHT22;19359;51.402;6.778;2022-12-11T03:38:39;0.70;1.00
7784;DHT22;19359;51.402;6.778;2022-12-11T03:41:08;0.70;1.00
7784;DHT22;19359;51.402;6.778;2022-12-11T03:43:36;0.70;1.00
7784;DHT22;19359;51.402;6.778;2022-12-11T03:46:07;0.80;1.00
7784;DHT22;19359;51.402;6.778;2022-12-11T03:48:36;0.80;1.00
7784;DHT22;19359;51.402;6.778;2022-12-11T03:51:05;0.80;1.00
7784;DHT22;19359;51.402;6.778;2022-12-11T03:53:32;0.80;1.00
7784;DHT22;19359;51.402;6.778;2022-12-11T03:56:01;0.70;1.00
7784;DHT22;19359;51.402;6.778;2022-12-11T03:58:28;0.80;1.00
7784;DHT22;19359;51.402;6.778;2022-12-11T04:00:55;0.80;1.00
7784;DHT22;19359;51.402;6.778;2022-12-11T04:03:23;0.80;1.00
7784;DHT22;19359;51.402;6.778;2022-12-11T04:05:53;0.80;1.00
7784;DHT22;19359;51.402;6.778;2022-12-11T04:08:21;0.80;1.00
7784;DHT22;19359;51.402;6.778;2022-12-11T04:10:48;0.80;1.00
7784;DHT22;19359;51.402;6.778;2022-12-11T04:13:36;0.80;1.00
7784;DHT22;19359;51.402;6.778;2022-12-11T04:16:03;0.80;1.00
7784;DHT22;19359;51.402;6.778;2022-12-11T04:18:30;0.90;1.00
7784;DHT22;19359;51.402;6.778;2022-12-11T04:21:14;0.80;1.00
7784;DHT22;19359;51.402;6.778;2022-12-11T04:23:58;0.80;1.00
7784;DHT22;19359;51.402;6.778;2022-12-11T04:26:41;0.80;1.00
7784;DHT22;19359;51.402;6.778;2022-12-11T04:29:08;0.90;1.00
7784;DHT22;19359;51.402;6.778;2022-12-11T04:31:34;0.90;68.70
7784;DHT22;19359;51.402;6.778;2022-12-11T04:34:02;0.90;1.00
7784;DHT22;19359;51.402;6.778;2022-12-11T04:36:29;0.90;1.00
7784;DHT22;19359;51.402;6.778;2022-12-11T04:38:56;0.90;1.00
7784;DHT22;19359;51.402;6.778;2022-12-11T04:41:22;0.90;80.40
7784;DHT22;19359;51.402;6.778;2022-12-11T04:43:49;0.90;94.30
7784;DHT22;19359;51.402;6.778;2022-12-11T04:46:18;0.90;1.00
7784;DHT22;19359;51.402;6.778;2022-12-11T04:48:45;0.90;1.00
7784;DHT22;19359;51.402;6.778;2022-12-11T04:51:14;0.90;1.00
7784;DHT22;19359;51.402;6.778;2022-12-11T04:53:41;1.00;1.00
7784;DHT22;19359;51.402;6.778;2022-12-11T04:56:10;0.90;1.00
7784;DHT22;19359;51.402;6.778;2022-12-11T04:58:37;0.90;1.00
7784;DHT22;19359;51.402;6.778;2022-12-11T05:01:06;0.90;1.00
7784;DHT22;19359;51.402;6.778;2022-12-11T05:03:33;0.90;1.00
7784;DHT22;19359;51.402;6.778;2022-12-11T05:06:00;0.90;1.00
7784;DHT22;19359;51.402;6.778;2022-12-11T05:08:28;0.90;1.00
7784;DHT22;19359;51.402;6.778;2022-12-11T05:10:55;0.90;1.00
7784;DHT22;19359;51.402;6.778;2022-12-11T05:13:23;0.90;1.00
7784;DHT22;19359;51.402;6.778;2022-12-11T05:15:49;0.90;1.00
7784;DHT22;19359;51.402;6.778;2022-12-11T05:18:16;0.90;1.00
7784;DHT22;19359;51.402;6.778;2022-12-11T05:20:43;0.90;1.00
7784;DHT22;19359;51.402;6.778;2022-12-11T05:23:10;0.90;93.00
7784;DHT22;19359;51.402;6.778;2022-12-11T05:25:38;1.00;1.00
7784;DHT22;19359;51.402;6.778;2022-12-11T05:28:05;1.00;1.00
7784;DHT22;19359;51.402;6.778;2022-12-11T05:30:32;0.90;1.00
7784;DHT22;19359;51.402;6.778;2022-12-11T05:32:58;0.90;1.00
7784;DHT22;19359;51.402;6.778;2022-12-11T05:35:25;0.90;1.00
7784;DHT22;19359;51.402;6.778;2022-12-11T05:37:52;0.90;1.00
7784;DHT22;19359;51.402;6.778;2022-12-11T05:40:19;0.90;99.90
7784;DHT22;19359;51.402;6.778;2022-12-11T05:42:46;0.90;1.00
7784;DHT22;19359;51.402;6.778;2022-12-11T05:45:13;0.90;1.00
7784;DHT22;19359;51.402;6.778;2022-12-11T05:47:40;0.90;1.00
7784;DHT22;19359;51.402;6.778;2022-12-11T05:50:07;0.90;1.00
7784;DHT22;19359;51.402;6.778;2022-12-11T05:52:35;0.90;1.00
7784;DHT22;19359;51.402;6.778;2022-12-11T05:55:02;0.90;1.00
7784;DHT22;19359;51.402;6.778;2022-12-11T05:57:29;0.90;1.00
7784;DHT22;19359;51.402;6.778;2022-12-11T05:59:57;1.00;96.30
7784;DHT22;19359;51.402;6.778;2022-12-11T06:02:23;1.00;99.90
7784;DHT22;19359;51.402;6.778;2022-12-11T06:04:50;0.90;1.00
7784;DHT22;19359;51.402;6.778;2022-12-11T06:07:17;1.00;1.00
7784;DHT22;19359;51.402;6.778;2022-12-11T06:09:44;1.00;99.90
7784;DHT22;19359;51.402;6.778;2022-12-11T06:12:10;1.00;1.00
7784;DHT22;19359;51.402;6.778;2022-12-11T06:14:38;0.80;99.90
7784;DHT22;19359;51.402;6.778;2022-12-11T06:17:06;0.90;1.00
7784;DHT22;19359;51.402;6.778;2022-12-11T06:19:33;0.90;99.90
7784;DHT22;19359;51.402;6.778;2022-12-11T06:22:00;0.90;1.00
7784;DHT22;19359;51.402;6.778;2022-12-11T06:24:27;0.90;99.90
7784;DHT22;19359;51.402;6.778;2022-12-11T06:26:53;1.20;1.00
7784;DHT22;19359;51.402;6.778;2022-12-11T06:29:20;0.90;99.90
7784;DHT22;19359;51.402;6.778;2022-12-11T06:31:47;0.90;99.90
7784;DHT22;19359;51.402;6.778;2022-12-11T06:34:15;0.90;1.00
7784;DHT22;19359;51.402;6.778;2022-12-11T06:36:41;0.90;1.00
7784;DHT22;19359;51.402;6.778;2022-12-11T06:39:08;0.90;1.00
7784;DHT22;19359;51.402;6.778;2022-12-11T06:41:35;0.90;1.00
7784;DHT22;19359;51.402;6.778;2022-12-11T06:44:01;0.90;1.00
7784;DHT22;19359;51.402;6.778;2022-12-11T06:48:55;0.90;1.00
7784;DHT22;19359;51.402;6.778;2022-12-11T06:51:23;1.00;99.90
7784;DHT22;19359;51.402;6.778;2022-12-11T06:53:51;0.90;1.00
7784;DHT22;19359;51.402;6.778;2022-12-11T06:56:18;0.80;79.60
7784;DHT22;19359;51.402;6.778;2022-12-11T06:58:45;0.90;76.00
7784;DHT22;19359;51.402;6.778;2022-12-11T07:01:14;0.80;1.00
7784;DHT22;19359;51.402;6.778;2022-12-11T07:03:41;0.90;1.00
7784;DHT22;19359;51.402;6.778;2022-12-11T07:06:08;0.90;73.70
7784;DHT22;19359;51.402;6.778;2022-12-11T07:08:36;0.90;1.00
7784;DHT22;19359;51.402;6.778;2022-12-11T07:11:04;0.90;1.00
7784;DHT22;19359;51.402;6.778;2022-12-11T07:13:31;0.90;1.00
7784;DHT22;19359;51.402;6.778;2022-12-11T07:15:58;0.90;1.00
7784;DHT22;19359;51.402;6.778;2022-12-11T07:18:26;0.90;1.00
7784;DHT22;19359;51.402;6.778;2022-12-11T07:20:53;0.90;51.20
7784;DHT22;19359;51.402;6.778;2022-12-11T07:23:20;0.80;1.00
7784;DHT22;19359;51.402;6.778;2022-12-11T07:25:48;0.90;1.00
7784;DHT22;19359;51.402;6.778;2022-12-11T07:28:15;0.70;56.20
7784;DHT22;19359;51.402;6.778;2022-12-11T07:30:41;0.90;1.00
7784;DHT22;19359;51.402;6.778;2022-12-11T07:33:08;0.90;52.40
7784;DHT22;19359;51.402;6.778;2022-12-11T07:35:35;0.90;1.00
7784;DHT22;19359;51.402;6.778;2022-12-11T07:38:02;0.90;1.00
7784;DHT22;19359;51.402;6.778;2022-12-11T07:40:28;0.90;1.00
7784;DHT22;19359;51.402;6.778;2022-12-11T07:42:57;0.90;1.00
7784;DHT22;19359;51.402;6.778;2022-12-11T07:45:24;0.90;1.00
7784;DHT22;19359;51.402;6.778;2022-12-11T07:47:51;0.70;8.50
7784;DHT22;19359;51.402;6.778;2022-12-11T07:50:18;0.90;10.40
7784;DHT22;19359;51.402;6.778;2022-12-11T07:52:45;0.90;1.00
7784;DHT22;19359;51.402;6.778;2022-12-11T07:55:11;0.80;6.00
7784;DHT22;19359;51.402;6.778;2022-12-11T07:57:39;0.80;5.10
7784;DHT22;19359;51.402;6.778;2022-12-11T08:00:08;0.90;1.00
7784;DHT22;19359;51.402;6.778;2022-12-11T08:02:36;0.90;1.00
7784;DHT22;19359;51.402;6.778;2022-12-11T08:05:03;1.00;21.00
7784;DHT22;19359;51.402;6.778;2022-12-11T08:07:33;0.90;1.00
7784;DHT22;19359;51.402;6.778;2022-12-11T08:10:00;1.40;1.00
7784;DHT22;19359;51.402;6.778;2022-12-11T08:12:27;0.90;1.00
7784;DHT22;19359;51.402;6.778;2022-12-11T08:14:53;1.00;1.00
7784;DHT22;19359;51.402;6.778;2022-12-11T08:17:21;1.00;1.00
7784;DHT22;19359;51.402;6.778;2022-12-11T08:19:48;1.00;1.00
7784;DHT22;19359;51.402;6.778;2022-12-11T08:24:42;0.90;1.00
7784;DHT22;19359;51.402;6.778;2022-12-11T08:27:08;1.00;1.00
7784;DHT22;19359;51.402;6.778;2022-12-11T08:29:35;0.90;1.00
7784;DHT22;19359;51.402;6.778;2022-12-11T08:32:02;1.00;1.00
7784;DHT22;19359;51.402;6.778;2022-12-11T08:34:30;1.00;1.00
7784;DHT22;19359;51.402;6.778;2022-12-11T08:36:57;0.90;1.00
7784;DHT22;19359;51.402;6.778;2022-12-11T08:39:24;1.00;1.00
7784;DHT22;19359;51.402;6.778;2022-12-11T08:41:51;0.90;1.00
7784;DHT22;19359;51.402;6.778;2022-12-11T08:44:17;0.90;1.00
7784;DHT22;19359;51.402;6.778;2022-12-11T08:46:44;1.00;1.00
7784;DHT22;19359;51.402;6.778;2022-12-11T08:49:11;1.00;1.00
7784;DHT22;19359;51.402;6.778;2022-12-11T08:51:39;1.00;1.00
7784;DHT22;19359;51.402;6.778;2022-12-11T08:54:06;1.00;1.00
7784;DHT22;19359;51.402;6.778;2022-12-11T08:56:32;1.00;1.00
7784;DHT22;19359;51.402;6.778;2022-12-11T08:59:00;1.00;1.00
7784;DHT22;19359;51.402;6.778;2022-12-11T09:01:28;1.00;1.00
7784;DHT22;19359;51.402;6.778;2022-12-11T09:03:55;1.10;1.00
7784;DHT22;19359;51.402;6.778;2022-12-11T09:06:25;1.10;1.00
7784;DHT22;19359;51.402;6.778;2022-12-11T09:08:54;1.10;1.00
7784;DHT22;19359;51.402;6.778;2022-12-11T09:11:23;1.10;1.00
7784;DHT22;19359;51.402;6.778;2022-12-11T09:13:50;1.10;1.00
7784;DHT22;19359;51.402;6.778;2022-12-11T09:16:19;1.10;1.00
7784;DHT22;19359;51.402;6.778;2022-12-11T09:18:48;1.20;1.00
7784;DHT22;19359;51.402;6.778;2022-12-11T09:21:16;1.00;1.00
7784;DHT22;19359;51.402;6.778;2022-12-11T09:23:44;1.00;1.00
7784;DHT22;19359;51.402;6.778;2022-12-11T09:26:13;1.10;1.00
7784;DHT22;19359;51.402;6.778;2022-12-11T09:28:41;1.00;1.00
7784;DHT22;19359;51.402;6.778;2022-12-11T09:31:08;1.10;1.00
7784;DHT22;19359;51.402;6.778;2022-12-11T09:33:35;1.10;1.00
7784;DHT22;19359;51.402;6.778;2022-12-11T09:36:03;1.10;1.00
7784;DHT22;19359;51.402;6.778;2022-12-11T09:38:30;1.20;1.00
7784;DHT22;19359;51.402;6.778;2022-12-11T09:40:58;1.10;1.00
7784;DHT22;19359;51.402;6.778;2022-12-11T09:43:35;1.10;1.00
7784;DHT22;19359;51.402;6.778;2022-12-11T09:46:06;1.30;1.00
7784;DHT22;19359;51.402;6.778;2022-12-11T09:48:35;1.20;1.00
7784;DHT22;19359;51.402;6.778;2022-12-11T09:51:12;1.20;1.00
7784;DHT22;19359;51.402;6.778;2022-12-11T09:53:40;1.20;1.00
7784;DHT22;19359;51.402;6.778;2022-12-11T09:56:13;1.30;1.00
7784;DHT22;19359;51.402;6.778;2022-12-11T09:58:54;1.20;1.00
7784;DHT22;19359;51.402;6.778;2022-12-11T10:01:30;1.30;1.00
7784;DHT22;19359;51.402;6.778;2022-12-11T10:04:07;1.30;1.00
7784;DHT22;19359;51.402;6.778;2022-12-11T10:06:42;0.90;1.00
7784;DHT22;19359;51.402;6.778;2022-12-11T10:09:17;1.20;1.00
7784;DHT22;19359;51.402;6.778;2022-12-11T10:12:02;1.20;1.00
7784;DHT22;19359;51.402;6.778;2022-12-11T10:14:46;1.30;1.00
7784;DHT22;19359;51.402;6.778;2022-12-11T10:17:20;1.40;1.00
7784;DHT22;19359;51.402;6.778;2022-12-11T10:19:48;1.40;1.00
7784;DHT22;19359;51.402;6.778;2022-12-11T10:22:19;1.40;1.00
7784;DHT22;19359;51.402;6.778;2022-12-11T10:24:53;1.40;1.00
7784;DHT22;19359;51.402;6.778;2022-12-11T10:27:23;1.60;1.00
7784;DHT22;19359;51.402;6.778;2022-12-11T10:30:00;1.50;1.00
7784;DHT22;19359;51.402;6.778;2022-12-11T10:32:34;1.60;1.00
7784;DHT22;19359;51.402;6.778;2022-12-11T10:35:05;1.40;1.00
7784;DHT22;19359;51.402;6.778;2022-12-11T10:37:32;1.50;1.00
7784;DHT22;19359;51.402;6.778;2022-12-11T10:39:59;1.70;1.00
7784;DHT22;19359;51.402;6.778;2022-12-11T10:42:26;1.80;1.00
7784;DHT22;19359;51.402;6.778;2022-12-11T10:44:59;1.70;1.00
7784;DHT22;19359;51.402;6.778;2022-12-11T10:47:27;1.80;1.00
7784;DHT22;19359;51.402;6.778;2022-12-11T10:49:56;1.70;1.00
7784;DHT22;19359;51.402;6.778;2022-12-11T10:52:25;1.70;1.00
7784;DHT22;19359;51.402;6.778;2022-12-11T10:54:57;1.80;1.00
7784;DHT22;19359;51.402;6.778;2022-12-11T10:57:31;1.70;1.00
7784;DHT22;19359;51.402;6.778;2022-12-11T11:00:03;1.70;1.00
7784;DHT22;19359;51.402;6.778;2022-12-11T11:02:32;1.70;1.00
7784;DHT22;19359;51.402;6.778;2022-12-11T11:05:10;1.80;1.00
7784;DHT22;19359;51.402;6.778;2022-12-11T11:07:37;1.60;1.00
7784;DHT22;19359;51.402;6.778;2022-12-11T11:10:09;1.80;1.00
7784;DHT22;19359;51.402;6.778;2022-12-11T11:12:40;1.80;1.00
7784;DHT22;19359;51.402;6.778;2022-12-11T11:15:12;1.60;1.00
7784;DHT22;19359;51.402;6.778;2022-12-11T11:17:43;1.50;1.00
7784;DHT22;19359;51.402;6.778;2022-12-11T11:20:14;1.70;1.00
7784;DHT22;19359;51.402;6.778;2022-12-11T11:22:44;1.70;1.00
7784;DHT22;19359;51.402;6.778;2022-12-11T11:25:16;1.80;1.00
7784;DHT22;19359;51.402;6.778;2022-12-11T11:27:49;1.70;1.00
7784;DHT22;19359;51.402;6.778;2022-12-11T11:30:20;1.70;1.00
7784;DHT22;19359;51.402;6.778;2022-12-11T11:32:49;1.60;1.00
7784;DHT22;19359;51.402;6.778;2022-12-11T11:35:19;1.70;1.00
7784;DHT22;19359;51.402;6.778;2022-12-11T11:37:56;1.70;1.00
7784;DHT22;19359;51.402;6.778;2022-12-11T11:40:26;1.80;1.00
7784;DHT22;19359;51.402;6.778;2022-12-11T11:43:00;1.70;1.00
7784;DHT22;19359;51.402;6.778;2022-12-11T11:45:36;1.80;1.00
7784;DHT22;19359;51.402;6.778;2022-12-11T11:48:17;1.70;1.00
7784;DHT22;19359;51.402;6.778;2022-12-11T11:50:48;1.60;1.00
7784;DHT22;19359;51.402;6.778;2022-12-11T11:53:21;1.70;1.00
7784;DHT22;19359;51.402;6.778;2022-12-11T11:55:56;1.70;1.00
7784;DHT22;19359;51.402;6.778;2022-12-11T11:58:32;1.40;1.00
7784;DHT22;19359;51.402;6.778;2022-12-11T12:01:02;1.70;1.00
7784;DHT22;19359;51.402;6.778;2022-12-11T12:03:29;1.90;1.00
7784;DHT22;19359;51.402;6.778;2022-12-11T12:06:01;1.60;1.00
7784;DHT22;19359;51.402;6.778;2022-12-11T12:08:40;1.60;1.00
7784;DHT22;19359;51.402;6.778;2022-12-11T12:11:15;1.70;1.00
7784;DHT22;19359;51.402;6.778;2022-12-11T12:13:49;1.80;1.00
7784;DHT22;19359;51.402;6.778;2022-12-11T12:16:25;1.70;1.00
7784;DHT22;19359;51.402;6.778;2022-12-11T12:19:02;1.30;1.00
7784;DHT22;19359;51.402;6.778;2022-12-11T12:21:34;1.80;1.00
7784;DHT22;19359;51.402;6.778;2022-12-11T12:24:14;1.70;1.00
7784;DHT22;19359;51.402;6.778;2022-12-11T12:26:47;1.90;1.00
7784;DHT22;19359;51.402;6.778;2022-12-11T12:29:22;1.80;1.00
7784;DHT22;19359;51.402;6.778;2022-12-11T12:32:02;1.90;1.00
7784;DHT22;19359;51.402;6.778;2022-12-11T12:34:42;1.80;1.00
7784;DHT22;19359;51.402;6.778;2022-12-11T12:37:18;1.90;1.00
7784;DHT22;19359;51.402;6.778;2022-12-11T12:39:55;1.90;1.00
7784;DHT22;19359;51.402;6.778;2022-12-11T12:42:31;2.00;1.00
7784;DHT22;19359;51.402;6.778;2022-12-11T12:45:06;1.90;1.00
7784;DHT22;19359;51.402;6.778;2022-12-11T12:47:35;2.00;1.00
7784;DHT22;19359;51.402;6.778;2022-12-11T12:50:10;2.00;1.00
7784;DHT22;19359;51.402;6.778;2022-12-11T12:52:38;2.00;1.00
7784;DHT22;19359;51.402;6.778;2022-12-11T12:55:17;2.10;1.00
7784;DHT22;19359;51.402;6.778;2022-12-11T12:57:48;2.10;1.00
7784;DHT22;19359;51.402;6.778;2022-12-11T13:00:30;2.00;1.00
7784;DHT22;19359;51.402;6.778;2022-12-11T13:03:01;2.00;1.00
7784;DHT22;19359;51.402;6.778;2022-12-11T13:05:40;2.00;1.00
7784;DHT22;19359;51.402;6.778;2022-12-11T13:08:09;2.00;1.00
7784;DHT22;19359;51.402;6.778;2022-12-11T13:10:38;2.00;1.00
7784;DHT22;19359;51.402;6.778;2022-12-11T13:13:28;2.20;1.00
7784;DHT22;19359;51.402;6.778;2022-12-11T13:16:06;1.90;1.00
7784;DHT22;19359;51.402;6.778;2022-12-11T13:18:36;2.10;1.00
7784;DHT22;19359;51.402;6.778;2022-12-11T13:21:24;2.00;1.00
7784;DHT22;19359;51.402;6.778;2022-12-11T13:23:51;2.00;1.00
7784;DHT22;19359;51.402;6.778;2022-12-11T13:26:27;1.90;1.00
7784;DHT22;19359;51.402;6.778;2022-12-11T13:28:54;1.90;1.00
7784;DHT22;19359;51.402;6.778;2022-12-11T13:31:31;1.90;1.00
7784;DHT22;19359;51.402;6.778;2022-12-11T13:34:12;2.00;1.00
7784;DHT22;19359;51.402;6.778;2022-12-11T13:36:45;1.90;1.00
7784;DHT22;19359;51.402;6.778;2022-12-11T13:39:16;1.90;1.00
7784;DHT22;19359;51.402;6.778;2022-12-11T13:41:46;1.90;1.00
7784;DHT22;19359;51.402;6.778;2022-12-11T13:44:18;1.80;1.00
7784;DHT22;19359;51.402;6.778;2022-12-11T13:46:50;2.20;1.00
7784;DHT22;19359;51.402;6.778;2022-12-11T13:49:24;2.00;1.00
7784;DHT22;19359;51.402;6.778;2022-12-11T13:51:53;1.90;1.00
7784;DHT22;19359;51.402;6.778;2022-12-11T13:56:59;1.90;1.00
7784;DHT22;19359;51.402;6.778;2022-12-11T13:59:29;2.10;1.00
7784;DHT22;19359;51.402;6.778;2022-12-11T14:02:00;2.00;1.00
7784;DHT22;19359;51.402;6.778;2022-12-11T14:07:07;1.90;1.00
7784;DHT22;19359;51.402;6.778;2022-12-11T14:09:37;2.00;1.00
7784;DHT22;19359;51.402;6.778;2022-12-11T14:12:05;2.10;1.00
7784;DHT22;19359;51.402;6.778;2022-12-11T14:14:39;1.90;1.00
7784;DHT22;19359;51.402;6.778;2022-12-11T14:17:10;1.90;1.00
7784;DHT22;19359;51.402;6.778;2022-12-11T14:19:39;1.70;1.00
7784;DHT22;19359;51.402;6.778;2022-12-11T14:22:18;1.70;1.00
7784;DHT22;19359;51.402;6.778;2022-12-11T14:24:49;1.70;1.00
7784;DHT22;19359;51.402;6.778;2022-12-11T14:27:17;1.60;1.00
7784;DHT22;19359;51.402;6.778;2022-12-11T14:29:44;1.30;1.00
7784;DHT22;19359;51.402;6.778;2022-12-11T14:32:16;1.60;1.00
7784;DHT22;19359;51.402;6.778;2022-12-11T14:34:45;1.80;1.00
7784;DHT22;19359;51.402;6.778;2022-12-11T14:37:14;1.60;1.00
7784;DHT22;19359;51.402;6.778;2022-12-11T14:39:46;1.60;1.00
7784;DHT22;19359;51.402;6.778;2022-12-11T14:42:18;3.60;1.00
7784;DHT22;19359;51.402;6.778;2022-12-11T14:44:48;1.60;1.00
7784;DHT22;19359;51.402;6.778;2022-12-11T14:47:18;1.60;1.00
7784;DHT22;19359;51.402;6.778;2022-12-11T14:49:48;1.60;1.00
7784;DHT22;19359;51.402;6.778;2022-12-11T14:52:18;1.50;1.00
7784;DHT22;19359;51.402;6.778;2022-12-11T14:54:49;1.50;1.00
7784;DHT22;19359;51.402;6.778;2022-12-11T14:57:20;1.10;1.00
7784;DHT22;19359;51.402;6.778;2022-12-11T14:59:50;1.50;1.00
7784;DHT22;19359;51.402;6.778;2022-12-11T15:02:27;1.60;1.00
7784;DHT22;19359;51.402;6.778;2022-12-11T15:05:13;1.40;1.00
7784;DHT22;19359;51.402;6.778;2022-12-11T15:07:52;1.50;1.00
7784;DHT22;19359;51.402;6.778;2022-12-11T15:10:26;1.50;1.00
7784;DHT22;19359;51.402;6.778;2022-12-11T15:12:57;1.40;1.00
7784;DHT22;19359;51.402;6.778;2022-12-11T15:15:25;1.50;99.90
7784;DHT22;19359;51.402;6.778;2022-12-11T15:17:53;1.50;1.00
7784;DHT22;19359;51.402;6.778;2022-12-11T15:20:23;1.30;1.00
7784;DHT22;19359;51.402;6.778;2022-12-11T15:22:51;1.10;1.00
7784;DHT22;19359;51.402;6.778;2022-12-11T15:25:20;1.20;1.00
7784;DHT22;19359;51.402;6.778;2022-12-11T15:27:51;1.30;1.00
7784;DHT22;19359;51.402;6.778;2022-12-11T15:30:33;1.30;1.00
7784;DHT22;19359;51.402;6.778;2022-12-11T15:36:00;1.40;1.00
7784;DHT22;19359;51.402;6.778;2022-12-11T15:38:30;1.10;1.00
7784;DHT22;19359;51.402;6.778;2022-12-11T15:40:58;1.20;1.00
7784;DHT22;19359;51.402;6.778;2022-12-11T15:43:27;1.20;1.00
7784;DHT22;19359;51.402;6.778;2022-12-11T15:45:54;1.20;1.00
7784;DHT22;19359;51.402;6.778;2022-12-11T15:48:21;1.10;1.00
7784;DHT22;19359;51.402;6.778;2022-12-11T15:50:48;1.20;1.00
7784;DHT22;19359;51.402;6.778;2022-12-11T15:53:15;1.20;1.00
7784;DHT22;19359;51.402;6.778;2022-12-11T15:55:41;1.00;1.00
7784;DHT22;19359;51.402;6.778;2022-12-11T15:58:14;1.10;1.00
7784;DHT22;19359;51.402;6.778;2022-12-11T16:00:42;1.10;1.00
7784;DHT22;19359;51.402;6.778;2022-12-11T16:03:10;1.10;1.00
7784;DHT22;19359;51.402;6.778;2022-12-11T16:05:38;1.00;1.00
7784;DHT22;19359;51.402;6.778;2022-12-11T16:08:05;1.10;1.00
7784;DHT22;19359;51.402;6.778;2022-12-11T16:10:32;1.20;1.00
7784;DHT22;19359;51.402;6.778;2022-12-11T16:12:59;1.10;1.00
7784;DHT22;19359;51.402;6.778;2022-12-11T16:15:27;1.10;1.00
7784;DHT22;19359;51.402;6.778;2022-12-11T16:18:04;1.10;1.00
7784;DHT22;19359;51.402;6.778;2022-12-11T16:20:32;1.10;1.00
7784;DHT22;19359;51.402;6.778;2022-12-11T16:22:59;1.80;1.00
7784;DHT22;19359;51.402;6.778;2022-12-11T16:25:26;1.00;1.00
7784;DHT22;19359;51.402;6.778;2022-12-11T16:27:54;1.10;1.00
7784;DHT22;19359;51.402;6.778;2022-12-11T16:30:22;1.50;1.00
7784;DHT22;19359;51.402;6.778;2022-12-11T16:32:48;1.10;1.00
7784;DHT22;19359;51.402;6.778;2022-12-11T16:35:17;1.10;1.00
7784;DHT22;19359;51.402;6.778;2022-12-11T16:37:44;1.10;1.00
7784;DHT22;19359;51.402;6.778;2022-12-11T16:40:11;1.10;1.00
7784;DHT22;19359;51.402;6.778;2022-12-11T16:42:39;1.10;1.00
7784;DHT22;19359;51.402;6.778;2022-12-11T16:45:09;1.10;1.00
7784;DHT22;19359;51.402;6.778;2022-12-11T16:47:36;1.10;1.00
7784;DHT22;19359;51.402;6.778;2022-12-11T16:50:03;1.20;1.00
7784;DHT22;19359;51.402;6.778;2022-12-11T16:52:31;1.50;1.00
7784;DHT22;19359;51.402;6.778;2022-12-11T16:54:58;1.00;1.00